Saturday, January 31, 2015
03:59 UTC
  |  Log In   |  Register Free
Airport Search:

Hampton Roads Executive Airport
(KPVG)

Hampton Roads Executive Airport Diagram
No Airport Diagram Available

FAA data valid effective January 08, 2015 - March 05, 2015 (unless otherwise noted).

 
 
 
 
 
 
 
 
 
 
 
 
 
 

Current Aviation Weather for Hampton Roads Executive Airport (KPVG)

The most recent METAR observation for KPVG was updated at: 0313
METAR Summary (Translated METAR)
KPVG
310255Z AUTO 30007G14KT 280V360 10SM CLR M01/M12 A3023 RMK AO1 52024
KCPK
310255Z AUTO 30010G18KT 10SM CLR 02/M11 A3021 RMK AO2
(9.2 nm SE from KPVG)
KSFQ
310255Z AUTO 33008G14KT 10SM CLR 00/M13 A3023 RMK AO2 T10011129
(9.4 nm SW from KPVG)
TAF
No TAF information found within 50 nm of KPVG
  Airport Weather Conditions for KPVG

 Current Weather at PVG
30° F
Fair
Northwest winds at 8.1 mph
PVG NOAA Radar

Pressure: 30.23 in
Humidity: 43%
Wind: from the Northwest at 8.1 gusting to 16.1 MPH (7 gusting to 14 KT)
Dew Point: 10.4°F
Visibility: 10.00 mi


Airport Weather Forecast for KPVG

Translated METAR and TAF for KPVG
Translated METAR for KPVG (0359 UTC 31 January 2015)
found at http://aviationweather.gov/adds/metars/
 
METAR text: KPVG 310355Z AUTO 31009G15KT 280V350 10SM CLR M01/M13 A3024 RMK AO1
Conditions at: KPVG (NORFOLK/HAMPTON , VA, US) observed 0355 UTC 31 January 2015
Temperature: -1.0°C (30°F)
Dewpoint: -13.0°C (9°F) [RH = 40%]
Pressure (altimeter): 30.24 inches Hg (1024.1 mb)
Winds: from the NW (310 degrees) at 10 MPH (9 knots; 4.7 m/s)
gusting to 17 MPH (15 knots; 7.8 m/s)
Visibility: 10 or more miles (16+ km)
Ceiling: at least 12,000 feet AGL
Clouds: sky clear below 12,000 feet AGL
Weather: automated observation with no human augmentation;
there may or may not be significant weather present at this time
Translated TAF for KPVG

There is no translated TAF available for this airport

Find All Airport Services Find A Hotel Find A Rental Car Find A Golf Course Find A Restaurant $100 Hamburger



FBO's on the Field
FBO Company Facility Photos Services Transportation Aviation Fuel Prices: Prices include tax
Catering Weather Repair Courtesy Rental Type 100LL JetA JetA+ MOGAS 8087
 
Hampton Roads Executive Airport

This FBO has not yet been rated
FS:Shell
Last Updated: Dec-29
Login to update fuel prices
SS:
Contact Hampton Roads Executive AirportMore FBO Information
 
Add another FBO Facility Photos Catering Weather Repair Courtesy Rental Type 100LL JetA JetA+ MOGAS 8087
Services Transportation Aviation Fuel Prices: Prices include tax


model-print
model-print
model-print
model-print